LDSH weather

Hvar Airport
Hvar Island, Split-Dalmatia County, Croatia

Public forecast

Using degrees Celsius for public forecast. Weather courtesy of forecast.io.

METAR (pilot weather report)

Report is more than 6 hours old.

Closest report is Bol Airport, 6.6 nm (12.2 km) NNE. Retrieved 2019/05/18 20:00 UTC (2 days ago):

LDSB 182000Z 14008KT 9999 SCT030 11/10 Q1009

TAF (pilot weather forecast)

Forecast is more than 12 hours old.

Closest forecast is Bol Airport, 6.6 nm (12.2 km) NNE. Retrieved 2019/05/18 18:00 UTC (2 days ago):

TAF LDSB 181725Z 1818/1918 12010KT 9999 SCT015 TX15/1913Z TN13/1903Z PROB40 TEMPO 1821/1909 2000 SHRA BKN010 FEW012TCU